sensor_id;sensor_type;location;lat;lon;timestamp;temperature;humidity
13721;DHT22;6932;51.438;5.470;2023-03-11T00:02:21;10.30;77.30
13721;DHT22;6932;51.438;5.470;2023-03-11T00:04:47;10.20;77.20
13721;DHT22;6932;51.438;5.470;2023-03-11T00:07:12;10.30;77.20
13721;DHT22;6932;51.438;5.470;2023-03-11T00:09:38;10.30;77.10
13721;DHT22;6932;51.438;5.470;2023-03-11T00:12:04;10.20;77.00
13721;DHT22;6932;51.438;5.470;2023-03-11T00:14:30;10.20;76.90
13721;DHT22;6932;51.438;5.470;2023-03-11T00:16:56;10.20;76.80
13721;DHT22;6932;51.438;5.470;2023-03-11T00:19:22;10.20;76.70
13721;DHT22;6932;51.438;5.470;2023-03-11T00:21:48;10.20;76.60
13721;DHT22;6932;51.438;5.470;2023-03-11T00:24:13;10.20;76.50
13721;DHT22;6932;51.438;5.470;2023-03-11T00:26:39;10.20;76.40
13721;DHT22;6932;51.438;5.470;2023-03-11T00:29:05;10.20;76.40
13721;DHT22;6932;51.438;5.470;2023-03-11T00:31:31;10.10;76.30
13721;DHT22;6932;51.438;5.470;2023-03-11T00:33:57;10.10;76.30
13721;DHT22;6932;51.438;5.470;2023-03-11T00:36:30;10.10;76.30
13721;DHT22;6932;51.438;5.470;2023-03-11T00:38:59;10.10;76.00
13721;DHT22;6932;51.438;5.470;2023-03-11T00:41:27;10.10;76.10
13721;DHT22;6932;51.438;5.470;2023-03-11T00:43:53;10.10;76.10
13721;DHT22;6932;51.438;5.470;2023-03-11T00:46:19;10.10;76.10
13721;DHT22;6932;51.438;5.470;2023-03-11T00:48:45;10.00;76.10
13721;DHT22;6932;51.438;5.470;2023-03-11T00:51:13;10.00;76.10
13721;DHT22;6932;51.438;5.470;2023-03-11T00:53:40;10.00;76.10
13721;DHT22;6932;51.438;5.470;2023-03-11T00:56:09;10.00;76.10
13721;DHT22;6932;51.438;5.470;2023-03-11T00:58:36;9.90;76.10
13721;DHT22;6932;51.438;5.470;2023-03-11T01:01:09;9.90;76.10
13721;DHT22;6932;51.438;5.470;2023-03-11T01:03:38;9.90;76.00
13721;DHT22;6932;51.438;5.470;2023-03-11T01:06:06;9.90;76.10
13721;DHT22;6932;51.438;5.470;2023-03-11T01:08:32;9.90;76.00
13721;DHT22;6932;51.438;5.470;2023-03-11T01:10:58;9.80;76.00
13721;DHT22;6932;51.438;5.470;2023-03-11T01:13:26;9.80;76.00
13721;DHT22;6932;51.438;5.470;2023-03-11T01:15:53;9.80;75.90
13721;DHT22;6932;51.438;5.470;2023-03-11T01:18:19;9.80;76.00
13721;DHT22;6932;51.438;5.470;2023-03-11T01:20:46;9.80;76.00
13721;DHT22;6932;51.438;5.470;2023-03-11T01:23:13;9.80;76.00
13721;DHT22;6932;51.438;5.470;2023-03-11T01:25:40;9.80;76.00
13721;DHT22;6932;51.438;5.470;2023-03-11T01:28:06;9.80;76.10
13721;DHT22;6932;51.438;5.470;2023-03-11T01:30:34;9.80;76.10
13721;DHT22;6932;51.438;5.470;2023-03-11T01:33:02;9.80;76.40
13721;DHT22;6932;51.438;5.470;2023-03-11T01:35:29;9.80;76.20
13721;DHT22;6932;51.438;5.470;2023-03-11T01:37:57;9.80;76.20
13721;DHT22;6932;51.438;5.470;2023-03-11T01:40:33;9.80;76.20
13721;DHT22;6932;51.438;5.470;2023-03-11T01:43:05;9.80;76.10
13721;DHT22;6932;51.438;5.470;2023-03-11T01:48:17;9.80;76.20
13721;DHT22;6932;51.438;5.470;2023-03-11T01:50:47;9.80;76.20
13721;DHT22;6932;51.438;5.470;2023-03-11T01:56:40;9.80;76.10
13721;DHT22;6932;51.438;5.470;2023-03-11T01:59:11;9.80;76.00
13721;DHT22;6932;51.438;5.470;2023-03-11T02:02:07;9.70;75.90
13721;DHT22;6932;51.438;5.470;2023-03-11T02:04:39;9.70;76.00
13721;DHT22;6932;51.438;5.470;2023-03-11T02:07:08;9.70;75.80
13721;DHT22;6932;51.438;5.470;2023-03-11T02:09:35;9.70;75.80
13721;DHT22;6932;51.438;5.470;2023-03-11T02:12:02;9.70;75.90
13721;DHT22;6932;51.438;5.470;2023-03-11T02:14:30;9.70;75.90
13721;DHT22;6932;51.438;5.470;2023-03-11T02:16:57;9.70;75.90
13721;DHT22;6932;51.438;5.470;2023-03-11T02:21:59;9.70;75.90
13721;DHT22;6932;51.438;5.470;2023-03-11T02:24:36;9.70;75.80
13721;DHT22;6932;51.438;5.470;2023-03-11T02:27:11;9.60;75.70
13721;DHT22;6932;51.438;5.470;2023-03-11T02:29:38;9.60;75.90
13721;DHT22;6932;51.438;5.470;2023-03-11T02:32:08;9.60;76.10
13721;DHT22;6932;51.438;5.470;2023-03-11T02:34:37;9.60;76.10
13721;DHT22;6932;51.438;5.470;2023-03-11T02:37:12;9.60;76.20
13721;DHT22;6932;51.438;5.470;2023-03-11T02:39:42;9.60;76.20
13721;DHT22;6932;51.438;5.470;2023-03-11T02:42:13;9.60;76.20
13721;DHT22;6932;51.438;5.470;2023-03-11T02:44:55;9.60;76.10
13721;DHT22;6932;51.438;5.470;2023-03-11T02:47:22;9.60;76.10
13721;DHT22;6932;51.438;5.470;2023-03-11T02:49:48;9.60;76.20
13721;DHT22;6932;51.438;5.470;2023-03-11T02:52:13;9.60;76.20
13721;DHT22;6932;51.438;5.470;2023-03-11T02:54:39;9.60;76.20
13721;DHT22;6932;51.438;5.470;2023-03-11T02:57:05;9.60;76.20
13721;DHT22;6932;51.438;5.470;2023-03-11T02:59:31;9.60;76.30
13721;DHT22;6932;51.438;5.470;2023-03-11T03:01:56;9.60;76.30
13721;DHT22;6932;51.438;5.470;2023-03-11T03:04:22;9.60;76.20
13721;DHT22;6932;51.438;5.470;2023-03-11T03:06:48;9.50;76.10
13721;DHT22;6932;51.438;5.470;2023-03-11T03:09:14;9.50;76.10
13721;DHT22;6932;51.438;5.470;2023-03-11T03:11:39;9.50;76.10
13721;DHT22;6932;51.438;5.470;2023-03-11T03:14:05;9.50;76.10
13721;DHT22;6932;51.438;5.470;2023-03-11T03:16:56;9.50;76.10
13721;DHT22;6932;51.438;5.470;2023-03-11T03:19:22;9.50;76.10
13721;DHT22;6932;51.438;5.470;2023-03-11T03:21:47;9.50;76.10
13721;DHT22;6932;51.438;5.470;2023-03-11T03:24:14;9.50;76.00
13721;DHT22;6932;51.438;5.470;2023-03-11T03:26:40;9.40;75.90
13721;DHT22;6932;51.438;5.470;2023-03-11T03:29:06;9.40;76.00
13721;DHT22;6932;51.438;5.470;2023-03-11T03:31:31;9.40;76.00
13721;DHT22;6932;51.438;5.470;2023-03-11T03:33:57;9.40;76.00
13721;DHT22;6932;51.438;5.470;2023-03-11T03:36:23;9.40;76.00
13721;DHT22;6932;51.438;5.470;2023-03-11T03:38:55;9.40;76.10
13721;DHT22;6932;51.438;5.470;2023-03-11T03:41:22;9.40;76.00
13721;DHT22;6932;51.438;5.470;2023-03-11T03:43:48;9.40;76.00
13721;DHT22;6932;51.438;5.470;2023-03-11T03:46:13;9.40;76.10
13721;DHT22;6932;51.438;5.470;2023-03-11T03:48:40;9.40;76.10
13721;DHT22;6932;51.438;5.470;2023-03-11T03:51:09;9.30;76.00
13721;DHT22;6932;51.438;5.470;2023-03-11T03:53:36;9.30;76.00
13721;DHT22;6932;51.438;5.470;2023-03-11T03:56:10;9.30;76.00
13721;DHT22;6932;51.438;5.470;2023-03-11T03:58:41;9.30;76.00
13721;DHT22;6932;51.438;5.470;2023-03-11T04:01:08;9.30;76.00
13721;DHT22;6932;51.438;5.470;2023-03-11T04:03:35;9.30;76.00
13721;DHT22;6932;51.438;5.470;2023-03-11T04:06:25;9.20;75.90
13721;DHT22;6932;51.438;5.470;2023-03-11T04:08:52;9.20;75.80
13721;DHT22;6932;51.438;5.470;2023-03-11T04:11:19;9.20;75.90
13721;DHT22;6932;51.438;5.470;2023-03-11T04:13:45;9.30;76.00
13721;DHT22;6932;51.438;5.470;2023-03-11T04:16:19;9.20;76.00
13721;DHT22;6932;51.438;5.470;2023-03-11T04:18:47;9.20;76.00
13721;DHT22;6932;51.438;5.470;2023-03-11T04:21:13;9.20;76.10
13721;DHT22;6932;51.438;5.470;2023-03-11T04:23:38;9.20;76.20
13721;DHT22;6932;51.438;5.470;2023-03-11T04:26:04;9.20;76.20
13721;DHT22;6932;51.438;5.470;2023-03-11T04:28:30;9.20;76.20
13721;DHT22;6932;51.438;5.470;2023-03-11T04:30:56;9.20;76.20
13721;DHT22;6932;51.438;5.470;2023-03-11T04:33:21;9.10;76.10
13721;DHT22;6932;51.438;5.470;2023-03-11T04:35:47;9.20;76.10
13721;DHT22;6932;51.438;5.470;2023-03-11T04:38:13;9.20;76.10
13721;DHT22;6932;51.438;5.470;2023-03-11T04:40:39;9.10;76.10
13721;DHT22;6932;51.438;5.470;2023-03-11T04:43:05;9.20;76.20
13721;DHT22;6932;51.438;5.470;2023-03-11T04:45:31;9.20;76.10
13721;DHT22;6932;51.438;5.470;2023-03-11T04:47:57;9.10;76.10
13721;DHT22;6932;51.438;5.470;2023-03-11T04:50:23;9.20;76.20
13721;DHT22;6932;51.438;5.470;2023-03-11T04:52:49;9.10;76.20
13721;DHT22;6932;51.438;5.470;2023-03-11T04:55:15;9.10;76.20
13721;DHT22;6932;51.438;5.470;2023-03-11T04:57:42;9.10;76.20
13721;DHT22;6932;51.438;5.470;2023-03-11T05:00:09;9.10;76.10
13721;DHT22;6932;51.438;5.470;2023-03-11T05:02:37;9.10;76.10
13721;DHT22;6932;51.438;5.470;2023-03-11T05:05:05;9.10;76.10
13721;DHT22;6932;51.438;5.470;2023-03-11T05:07:31;9.10;76.10
13721;DHT22;6932;51.438;5.470;2023-03-11T05:09:57;9.00;76.10
13721;DHT22;6932;51.438;5.470;2023-03-11T05:12:23;9.10;76.20
13721;DHT22;6932;51.438;5.470;2023-03-11T05:14:48;9.00;76.10
13721;DHT22;6932;51.438;5.470;2023-03-11T05:17:14;9.00;76.20
13721;DHT22;6932;51.438;5.470;2023-03-11T05:19:42;9.00;76.20
13721;DHT22;6932;51.438;5.470;2023-03-11T05:22:08;9.00;76.20
13721;DHT22;6932;51.438;5.470;2023-03-11T05:24:35;9.00;76.30
13721;DHT22;6932;51.438;5.470;2023-03-11T05:27:01;9.00;76.40
13721;DHT22;6932;51.438;5.470;2023-03-11T05:29:27;9.00;76.40
13721;DHT22;6932;51.438;5.470;2023-03-11T05:31:53;9.00;76.50
13721;DHT22;6932;51.438;5.470;2023-03-11T05:34:21;9.10;76.50
13721;DHT22;6932;51.438;5.470;2023-03-11T05:36:47;9.00;76.50
13721;DHT22;6932;51.438;5.470;2023-03-11T05:39:13;9.00;76.40
13721;DHT22;6932;51.438;5.470;2023-03-11T05:41:39;9.00;76.30
13721;DHT22;6932;51.438;5.470;2023-03-11T05:44:06;9.00;76.40
13721;DHT22;6932;51.438;5.470;2023-03-11T05:46:31;9.00;76.30
13721;DHT22;6932;51.438;5.470;2023-03-11T05:49:00;9.00;76.40
13721;DHT22;6932;51.438;5.470;2023-03-11T05:51:26;9.00;76.40
13721;DHT22;6932;51.438;5.470;2023-03-11T05:53:52;8.90;76.40
13721;DHT22;6932;51.438;5.470;2023-03-11T05:56:20;8.90;76.50
13721;DHT22;6932;51.438;5.470;2023-03-11T05:58:47;8.90;76.50
13721;DHT22;6932;51.438;5.470;2023-03-11T06:01:15;9.00;76.50
13721;DHT22;6932;51.438;5.470;2023-03-11T06:03:42;8.90;76.50
13721;DHT22;6932;51.438;5.470;2023-03-11T06:09:49;8.80;76.40
13721;DHT22;6932;51.438;5.470;2023-03-11T06:12:15;8.80;76.40
13721;DHT22;6932;51.438;5.470;2023-03-11T06:14:40;8.80;76.40
13721;DHT22;6932;51.438;5.470;2023-03-11T06:17:06;8.80;76.50
13721;DHT22;6932;51.438;5.470;2023-03-11T06:19:32;8.80;76.50
13721;DHT22;6932;51.438;5.470;2023-03-11T06:21:58;8.80;76.50
13721;DHT22;6932;51.438;5.470;2023-03-11T06:24:24;8.80;76.60
13721;DHT22;6932;51.438;5.470;2023-03-11T06:30:39;8.80;76.80
13721;DHT22;6932;51.438;5.470;2023-03-11T06:33:05;8.80;76.80
13721;DHT22;6932;51.438;5.470;2023-03-11T06:35:30;8.80;76.90
13721;DHT22;6932;51.438;5.470;2023-03-11T06:37:56;8.80;77.30
13721;DHT22;6932;51.438;5.470;2023-03-11T06:40:22;8.80;77.20
13721;DHT22;6932;51.438;5.470;2023-03-11T06:42:47;8.80;77.40
13721;DHT22;6932;51.438;5.470;2023-03-11T06:45:13;8.80;77.70
13721;DHT22;6932;51.438;5.470;2023-03-11T06:47:39;8.90;77.80
13721;DHT22;6932;51.438;5.470;2023-03-11T06:50:06;8.90;78.00
13721;DHT22;6932;51.438;5.470;2023-03-11T06:52:33;9.00;78.20
13721;DHT22;6932;51.438;5.470;2023-03-11T06:55:00;9.10;78.50
13721;DHT22;6932;51.438;5.470;2023-03-11T06:57:26;9.10;78.60
13721;DHT22;6932;51.438;5.470;2023-03-11T06:59:52;9.20;78.90
13721;DHT22;6932;51.438;5.470;2023-03-11T07:02:17;9.30;79.20
13721;DHT22;6932;51.438;5.470;2023-03-11T07:04:43;9.40;79.20
13721;DHT22;6932;51.438;5.470;2023-03-11T07:07:09;9.50;79.30
13721;DHT22;6932;51.438;5.470;2023-03-11T07:09:35;9.70;79.30
13721;DHT22;6932;51.438;5.470;2023-03-11T07:12:00;9.80;79.30
13721;DHT22;6932;51.438;5.470;2023-03-11T07:14:26;10.00;79.40
13721;DHT22;6932;51.438;5.470;2023-03-11T07:16:52;10.10;79.40
13721;DHT22;6932;51.438;5.470;2023-03-11T07:19:17;10.20;79.50
13721;DHT22;6932;51.438;5.470;2023-03-11T07:21:44;10.40;79.50
13721;DHT22;6932;51.438;5.470;2023-03-11T07:24:11;10.50;79.30
13721;DHT22;6932;51.438;5.470;2023-03-11T07:26:38;10.70;79.10
13721;DHT22;6932;51.438;5.470;2023-03-11T07:29:04;10.90;79.00
13721;DHT22;6932;51.438;5.470;2023-03-11T07:31:32;11.00;78.90
13721;DHT22;6932;51.438;5.470;2023-03-11T07:34:02;11.10;78.60
13721;DHT22;6932;51.438;5.470;2023-03-11T07:36:30;11.30;78.30
13721;DHT22;6932;51.438;5.470;2023-03-11T07:38:58;11.50;78.90
13721;DHT22;6932;51.438;5.470;2023-03-11T07:41:29;11.70;78.00
13721;DHT22;6932;51.438;5.470;2023-03-11T07:43:59;11.80;77.50
13721;DHT22;6932;51.438;5.470;2023-03-11T07:53:48;12.30;76.60
13721;DHT22;6932;51.438;5.470;2023-03-11T07:56:16;12.50;76.20
13721;DHT22;6932;51.438;5.470;2023-03-11T07:58:43;12.60;76.20
13721;DHT22;6932;51.438;5.470;2023-03-11T08:01:11;12.80;75.90
13721;DHT22;6932;51.438;5.470;2023-03-11T08:03:41;12.90;75.50
13721;DHT22;6932;51.438;5.470;2023-03-11T08:06:17;13.00;75.40
13721;DHT22;6932;51.438;5.470;2023-03-11T08:08:46;13.10;75.00
13721;DHT22;6932;51.438;5.470;2023-03-11T08:11:14;13.30;74.50
13721;DHT22;6932;51.438;5.470;2023-03-11T08:13:42;13.40;74.10
13721;DHT22;6932;51.438;5.470;2023-03-11T08:16:12;13.50;73.50
13721;DHT22;6932;51.438;5.470;2023-03-11T08:18:40;13.60;72.80
13721;DHT22;6932;51.438;5.470;2023-03-11T08:21:15;13.70;72.70
13721;DHT22;6932;51.438;5.470;2023-03-11T08:23:42;13.80;73.20
13721;DHT22;6932;51.438;5.470;2023-03-11T08:26:13;14.00;73.00
13721;DHT22;6932;51.438;5.470;2023-03-11T08:28:44;14.10;72.80
13721;DHT22;6932;51.438;5.470;2023-03-11T08:31:16;14.20;72.80
13721;DHT22;6932;51.438;5.470;2023-03-11T08:33:47;14.40;71.80
13721;DHT22;6932;51.438;5.470;2023-03-11T08:36:15;14.50;71.70
13721;DHT22;6932;51.438;5.470;2023-03-11T08:38:41;14.60;71.20
13721;DHT22;6932;51.438;5.470;2023-03-11T08:41:07;14.70;70.30
13721;DHT22;6932;51.438;5.470;2023-03-11T08:43:32;14.80;69.60
13721;DHT22;6932;51.438;5.470;2023-03-11T08:46:00;14.90;69.40
13721;DHT22;6932;51.438;5.470;2023-03-11T08:48:26;15.00;69.00
13721;DHT22;6932;51.438;5.470;2023-03-11T08:50:53;15.10;68.90
13721;DHT22;6932;51.438;5.470;2023-03-11T08:53:20;15.20;67.90
13721;DHT22;6932;51.438;5.470;2023-03-11T08:55:47;15.30;67.40
13721;DHT22;6932;51.438;5.470;2023-03-11T08:58:14;15.30;66.50
13721;DHT22;6932;51.438;5.470;2023-03-11T09:00:40;15.40;65.30
13721;DHT22;6932;51.438;5.470;2023-03-11T09:03:06;15.40;65.30
13721;DHT22;6932;51.438;5.470;2023-03-11T09:05:31;15.30;64.60
13721;DHT22;6932;51.438;5.470;2023-03-11T09:11:47;15.30;64.10
13721;DHT22;6932;51.438;5.470;2023-03-11T09:14:13;15.30;63.90
13721;DHT22;6932;51.438;5.470;2023-03-11T09:16:39;15.30;63.90
13721;DHT22;6932;51.438;5.470;2023-03-11T09:19:05;15.30;63.60
13721;DHT22;6932;51.438;5.470;2023-03-11T09:21:35;15.40;63.60
13721;DHT22;6932;51.438;5.470;2023-03-11T09:24:02;15.40;62.40
13721;DHT22;6932;51.438;5.470;2023-03-11T09:26:30;15.50;61.80
13721;DHT22;6932;51.438;5.470;2023-03-11T09:28:56;15.50;59.50
13721;DHT22;6932;51.438;5.470;2023-03-11T09:43:10;14.80;56.90
13721;DHT22;6932;51.438;5.470;2023-03-11T09:45:52;14.50;56.60
13721;DHT22;6932;51.438;5.470;2023-03-11T09:48:40;14.30;58.10
13721;DHT22;6932;51.438;5.470;2023-03-11T09:51:27;14.20;59.00
13721;DHT22;6932;51.438;5.470;2023-03-11T09:54:02;14.10;58.50
13721;DHT22;6932;51.438;5.470;2023-03-11T09:56:30;14.10;58.80
13721;DHT22;6932;51.438;5.470;2023-03-11T09:59:35;14.00;59.90
13721;DHT22;6932;51.438;5.470;2023-03-11T10:01:57;14.10;59.80
13721;DHT22;6932;51.438;5.470;2023-03-11T10:04:38;14.10;61.00
13721;DHT22;6932;51.438;5.470;2023-03-11T10:07:12;14.20;60.60
13721;DHT22;6932;51.438;5.470;2023-03-11T10:09:54;14.40;60.60
13721;DHT22;6932;51.438;5.470;2023-03-11T10:20:58;14.80;58.50
13721;DHT22;6932;51.438;5.470;2023-03-11T10:26:35;14.80;57.70
13721;DHT22;6932;51.438;5.470;2023-03-11T10:29:25;14.80;56.80
13721;DHT22;6932;51.438;5.470;2023-03-11T10:31:56;14.80;57.20
13721;DHT22;6932;51.438;5.470;2023-03-11T10:34:42;14.80;57.00
13721;DHT22;6932;51.438;5.470;2023-03-11T10:39:49;14.70;56.50
13721;DHT22;6932;51.438;5.470;2023-03-11T10:42:27;14.70;57.10
13721;DHT22;6932;51.438;5.470;2023-03-11T10:44:53;14.60;56.70
13721;DHT22;6932;51.438;5.470;2023-03-11T10:47:23;14.60;57.10
13721;DHT22;6932;51.438;5.470;2023-03-11T10:49:50;14.60;57.30
13721;DHT22;6932;51.438;5.470;2023-03-11T10:52:19;14.60;56.90
13721;DHT22;6932;51.438;5.470;2023-03-11T10:54:48;14.50;57.50
13721;DHT22;6932;51.438;5.470;2023-03-11T10:57:32;14.50;56.60
13721;DHT22;6932;51.438;5.470;2023-03-11T11:00:02;14.50;56.30
13721;DHT22;6932;51.438;5.470;2023-03-11T11:02:55;14.60;57.20
13721;DHT22;6932;51.438;5.470;2023-03-11T11:05:31;14.50;57.80
13721;DHT22;6932;51.438;5.470;2023-03-11T11:08:13;14.60;57.70
13721;DHT22;6932;51.438;5.470;2023-03-11T11:11:01;14.60;58.00
13721;DHT22;6932;51.438;5.470;2023-03-11T11:13:30;14.70;58.20
13721;DHT22;6932;51.438;5.470;2023-03-11T11:16:18;14.70;58.00
13721;DHT22;6932;51.438;5.470;2023-03-11T11:18:48;14.80;58.40
13721;DHT22;6932;51.438;5.470;2023-03-11T11:21:40;14.80;59.50
13721;DHT22;6932;51.438;5.470;2023-03-11T11:26:41;15.00;56.60
13721;DHT22;6932;51.438;5.470;2023-03-11T11:29:13;15.00;55.80
13721;DHT22;6932;51.438;5.470;2023-03-11T11:31:44;15.00;55.40
13721;DHT22;6932;51.438;5.470;2023-03-11T11:34:31;15.00;56.00
13721;DHT22;6932;51.438;5.470;2023-03-11T11:37:03;14.90;56.30
13721;DHT22;6932;51.438;5.470;2023-03-11T11:39:40;14.90;56.50
13721;DHT22;6932;51.438;5.470;2023-03-11T11:42:17;14.90;56.90
13721;DHT22;6932;51.438;5.470;2023-03-11T11:44:47;14.80;57.00
13721;DHT22;6932;51.438;5.470;2023-03-11T11:47:31;14.80;57.00
13721;DHT22;6932;51.438;5.470;2023-03-11T11:50:02;14.80;56.80
13721;DHT22;6932;51.438;5.470;2023-03-11T11:52:34;14.80;56.40
13721;DHT22;6932;51.438;5.470;2023-03-11T11:55:16;14.80;56.20
13721;DHT22;6932;51.438;5.470;2023-03-11T11:57:45;14.80;56.90
13721;DHT22;6932;51.438;5.470;2023-03-11T12:00:21;14.90;56.30
13721;DHT22;6932;51.438;5.470;2023-03-11T12:06:34;15.00;55.70
13721;DHT22;6932;51.438;5.470;2023-03-11T12:19:03;15.10;54.60
13721;DHT22;6932;51.438;5.470;2023-03-11T12:27:27;15.10;55.10
13721;DHT22;6932;51.438;5.470;2023-03-11T12:30:05;15.10;55.20
13721;DHT22;6932;51.438;5.470;2023-03-11T12:32:58;15.10;55.40
13721;DHT22;6932;51.438;5.470;2023-03-11T12:35:31;15.20;55.40
13721;DHT22;6932;51.438;5.470;2023-03-11T12:40:49;15.30;55.70
13721;DHT22;6932;51.438;5.470;2023-03-11T12:43:23;15.30;55.50
13721;DHT22;6932;51.438;5.470;2023-03-11T12:49:47;15.40;54.70
13721;DHT22;6932;51.438;5.470;2023-03-11T12:52:27;15.40;54.30
13721;DHT22;6932;51.438;5.470;2023-03-11T12:58:02;15.40;55.50
13721;DHT22;6932;51.438;5.470;2023-03-11T13:09:01;14.20;56.50
13721;DHT22;6932;51.438;5.470;2023-03-11T13:16:40;13.90;58.00
13721;DHT22;6932;51.438;5.470;2023-03-11T13:21:57;14.30;56.50
13721;DHT22;6932;51.438;5.470;2023-03-11T13:30:34;14.70;54.50
13721;DHT22;6932;51.438;5.470;2023-03-11T13:33:20;14.80;54.30
13721;DHT22;6932;51.438;5.470;2023-03-11T13:36:00;14.80;55.40
13721;DHT22;6932;51.438;5.470;2023-03-11T13:39:13;14.80;55.60
13721;DHT22;6932;51.438;5.470;2023-03-11T13:41:45;14.80;56.30
13721;DHT22;6932;51.438;5.470;2023-03-11T13:44:29;14.90;55.70
13721;DHT22;6932;51.438;5.470;2023-03-11T13:47:13;15.00;55.50
13721;DHT22;6932;51.438;5.470;2023-03-11T13:50:01;15.00;55.80
13721;DHT22;6932;51.438;5.470;2023-03-11T13:52:46;15.00;55.60
13721;DHT22;6932;51.438;5.470;2023-03-11T13:55:24;15.10;56.60
13721;DHT22;6932;51.438;5.470;2023-03-11T13:57:56;15.10;56.10
13721;DHT22;6932;51.438;5.470;2023-03-11T14:00:24;15.10;56.00
13721;DHT22;6932;51.438;5.470;2023-03-11T14:08:33;15.30;55.70
13721;DHT22;6932;51.438;5.470;2023-03-11T14:13:47;15.30;54.90
13721;DHT22;6932;51.438;5.470;2023-03-11T14:16:31;15.30;54.90
13721;DHT22;6932;51.438;5.470;2023-03-11T14:19:17;15.30;54.70
13721;DHT22;6932;51.438;5.470;2023-03-11T14:21:45;15.30;54.80
13721;DHT22;6932;51.438;5.470;2023-03-11T14:24:27;15.30;55.10
13721;DHT22;6932;51.438;5.470;2023-03-11T14:26:56;15.30;54.20
13721;DHT22;6932;51.438;5.470;2023-03-11T14:29:44;15.30;54.10
13721;DHT22;6932;51.438;5.470;2023-03-11T14:32:28;15.30;54.60
13721;DHT22;6932;51.438;5.470;2023-03-11T14:34:55;15.30;54.60
13721;DHT22;6932;51.438;5.470;2023-03-11T14:37:34;15.30;53.10
13721;DHT22;6932;51.438;5.470;2023-03-11T14:40:38;15.30;52.80
13721;DHT22;6932;51.438;5.470;2023-03-11T14:46:45;15.30;53.40
13721;DHT22;6932;51.438;5.470;2023-03-11T14:49:15;15.30;53.00
13721;DHT22;6932;51.438;5.470;2023-03-11T14:51:46;15.20;52.60
13721;DHT22;6932;51.438;5.470;2023-03-11T14:54:24;15.20;52.20
13721;DHT22;6932;51.438;5.470;2023-03-11T14:57:01;15.10;52.20
13721;DHT22;6932;51.438;5.470;2023-03-11T14:59:31;15.10;52.70
13721;DHT22;6932;51.438;5.470;2023-03-11T15:09:20;15.00;53.70
13721;DHT22;6932;51.438;5.470;2023-03-11T15:11:52;15.00;53.30
13721;DHT22;6932;51.438;5.470;2023-03-11T15:14:23;15.10;53.40
13721;DHT22;6932;51.438;5.470;2023-03-11T15:16:55;15.10;53.50
13721;DHT22;6932;51.438;5.470;2023-03-11T15:19:56;15.10;53.00
13721;DHT22;6932;51.438;5.470;2023-03-11T15:22:34;15.10;53.40
13721;DHT22;6932;51.438;5.470;2023-03-11T15:25:11;15.10;52.10
13721;DHT22;6932;51.438;5.470;2023-03-11T15:31:35;15.10;53.40
13721;DHT22;6932;51.438;5.470;2023-03-11T15:39:13;15.00;54.00
13721;DHT22;6932;51.438;5.470;2023-03-11T15:41:55;15.00;55.00
13721;DHT22;6932;51.438;5.470;2023-03-11T15:44:28;15.00;54.90
13721;DHT22;6932;51.438;5.470;2023-03-11T15:46:56;15.00;54.90
13721;DHT22;6932;51.438;5.470;2023-03-11T15:49:25;15.00;54.40
13721;DHT22;6932;51.438;5.470;2023-03-11T15:55:41;15.00;54.50
13721;DHT22;6932;51.438;5.470;2023-03-11T15:58:07;15.00;54.10
13721;DHT22;6932;51.438;5.470;2023-03-11T16:00:35;15.00;54.30
13721;DHT22;6932;51.438;5.470;2023-03-11T16:03:02;15.00;54.50
13721;DHT22;6932;51.438;5.470;2023-03-11T16:05:28;14.90;54.80
13721;DHT22;6932;51.438;5.470;2023-03-11T16:07:54;14.90;55.00
13721;DHT22;6932;51.438;5.470;2023-03-11T16:10:22;14.90;54.20
13721;DHT22;6932;51.438;5.470;2023-03-11T16:12:53;14.90;53.60
13721;DHT22;6932;51.438;5.470;2023-03-11T16:15:34;14.90;54.10
13721;DHT22;6932;51.438;5.470;2023-03-11T16:18:04;14.90;54.00
13721;DHT22;6932;51.438;5.470;2023-03-11T16:20:40;14.90;54.30
13721;DHT22;6932;51.438;5.470;2023-03-11T16:23:15;14.90;54.20
13721;DHT22;6932;51.438;5.470;2023-03-11T16:25:43;14.90;54.20
13721;DHT22;6932;51.438;5.470;2023-03-11T16:28:14;14.90;54.60
13721;DHT22;6932;51.438;5.470;2023-03-11T16:30:41;14.80;54.30
13721;DHT22;6932;51.438;5.470;2023-03-11T16:33:07;14.80;54.30
13721;DHT22;6932;51.438;5.470;2023-03-11T16:35:33;14.80;53.20
13721;DHT22;6932;51.438;5.470;2023-03-11T16:37:59;14.70;52.90
13721;DHT22;6932;51.438;5.470;2023-03-11T16:40:27;14.50;52.90
13721;DHT22;6932;51.438;5.470;2023-03-11T16:42:56;14.40;52.70
13721;DHT22;6932;51.438;5.470;2023-03-11T16:45:25;14.20;52.30
13721;DHT22;6932;51.438;5.470;2023-03-11T16:47:51;14.00;53.60
13721;DHT22;6932;51.438;5.470;2023-03-11T16:50:17;13.80;53.50
13721;DHT22;6932;51.438;5.470;2023-03-11T16:52:45;13.70;54.10
13721;DHT22;6932;51.438;5.470;2023-03-11T16:55:11;13.50;54.60
13721;DHT22;6932;51.438;5.470;2023-03-11T16:57:37;13.40;54.70
13721;DHT22;6932;51.438;5.470;2023-03-11T17:00:05;13.40;54.80
13721;DHT22;6932;51.438;5.470;2023-03-11T17:02:35;13.40;54.40
13721;DHT22;6932;51.438;5.470;2023-03-11T17:05:04;13.50;54.60
13721;DHT22;6932;51.438;5.470;2023-03-11T17:07:31;13.50;54.70
13721;DHT22;6932;51.438;5.470;2023-03-11T17:09:58;13.60;54.70
13721;DHT22;6932;51.438;5.470;2023-03-11T17:23:33;13.90;54.00
13721;DHT22;6932;51.438;5.470;2023-03-11T17:25:59;13.90;53.70
13721;DHT22;6932;51.438;5.470;2023-03-11T17:28:25;13.90;53.70
13721;DHT22;6932;51.438;5.470;2023-03-11T17:30:51;13.90;53.50
13721;DHT22;6932;51.438;5.470;2023-03-11T17:33:17;13.90;53.60
13721;DHT22;6932;51.438;5.470;2023-03-11T17:35:42;13.90;53.60
13721;DHT22;6932;51.438;5.470;2023-03-11T17:38:09;14.00;53.30
13721;DHT22;6932;51.438;5.470;2023-03-11T17:40:36;13.90;53.50
13721;DHT22;6932;51.438;5.470;2023-03-11T17:57:46;13.90;53.00
13721;DHT22;6932;51.438;5.470;2023-03-11T18:00:12;13.90;53.50
13721;DHT22;6932;51.438;5.470;2023-03-11T18:02:39;13.80;53.70
13721;DHT22;6932;51.438;5.470;2023-03-11T18:05:05;13.80;53.30
13721;DHT22;6932;51.438;5.470;2023-03-11T18:07:31;13.80;53.50
13721;DHT22;6932;51.438;5.470;2023-03-11T18:21:11;13.80;54.30
13721;DHT22;6932;51.438;5.470;2023-03-11T18:23:44;13.70;55.00
13721;DHT22;6932;51.438;5.470;2023-03-11T18:26:13;13.70;55.20
13721;DHT22;6932;51.438;5.470;2023-03-11T18:28:41;13.70;55.20
13721;DHT22;6932;51.438;5.470;2023-03-11T18:31:11;13.70;55.80
13721;DHT22;6932;51.438;5.470;2023-03-11T18:33:40;13.70;55.90
13721;DHT22;6932;51.438;5.470;2023-03-11T18:36:15;13.70;55.70
13721;DHT22;6932;51.438;5.470;2023-03-11T18:38:41;13.70;55.80
13721;DHT22;6932;51.438;5.470;2023-03-11T18:41:35;13.70;55.80
13721;DHT22;6932;51.438;5.470;2023-03-11T18:44:02;13.60;55.90
13721;DHT22;6932;51.438;5.470;2023-03-11T18:46:29;13.60;55.30
13721;DHT22;6932;51.438;5.470;2023-03-11T18:48:57;13.60;55.50
13721;DHT22;6932;51.438;5.470;2023-03-11T18:51:26;13.50;55.80
13721;DHT22;6932;51.438;5.470;2023-03-11T18:53:53;13.50;56.20
13721;DHT22;6932;51.438;5.470;2023-03-11T18:56:19;13.50;56.00
13721;DHT22;6932;51.438;5.470;2023-03-11T19:02:26;13.40;56.30
13721;DHT22;6932;51.438;5.470;2023-03-11T19:04:51;13.40;56.10
13721;DHT22;6932;51.438;5.470;2023-03-11T19:07:17;13.40;56.50
13721;DHT22;6932;51.438;5.470;2023-03-11T19:09:43;13.40;55.90
13721;DHT22;6932;51.438;5.470;2023-03-11T19:12:09;13.30;56.30